VNKT/KTM METAR and TAF weather

Enter ICAO airport designator
Station Type Date Time Source
VNKT METAR 2018/12/11 21:20 UTC NOAA

VNKT 112120Z 00000KT 6000 FEW015 06/05 Q1020 NOSIG


Station Type Date Time Source
VNKT Decoded METAR 2018/12/11 21:20 UTC NOAA

Kathmandu Airport, Nepal (VNKT) 27-42N 085-22E 1337M
Dec 11, 2018 - 04:20 PM EST / 2018.12.11 2120 UTC
Wind: Calm:0
Visibility: 3 mile(s):0
Sky conditions: mostly clear
Temperature: 42 F (6 C)
Dew Point: 41 F (5 C)
Relative Humidity: 93%
Pressure (altimeter): 30.12 in. Hg (1020 hPa)
ob: VNKT 112120Z 00000KT 6000 FEW015 06/05 Q1020 NOSIG
cycle: 21

Station Type Date Time Source
VNKT TAF 2018/12/11 18:39 UTC NOAA

TAF VNKT 111700Z 1118/1218 VRB02KT 6000 FEW015
BECMG 1200/1202 3000 BR FEW010 PROB40 1201/1203 1000 BR
BECMG 1204/1205 15003KT 5000 HZ FEW015
BECMG 1207/1208 26008KT 7000 FEW020 SCT100
BECMG 1214/1215 11003KT 6000 FEW015 SCT030


Example: see airport list